createdAt,value
2022-10-03T00:02:29.139Z,23.50
2022-10-03T00:05:01.295Z,23.50
2022-10-03T00:07:34.522Z,22.97
2022-10-03T00:10:13.364Z,24.30
2022-10-03T00:12:40.506Z,24.73
2022-10-03T00:15:22.618Z,25.23
2022-10-03T00:17:57.129Z,25.10
2022-10-03T00:20:36.158Z,24.53
2022-10-03T00:23:21.862Z,25.57
2022-10-03T00:25:58.935Z,25.80
2022-10-03T00:28:44.530Z,27.00
2022-10-03T00:31:17.028Z,25.67
2022-10-03T00:33:51.066Z,24.43
2022-10-03T00:36:38.008Z,24.90
2022-10-03T00:39:12.721Z,25.37
2022-10-03T00:41:45.909Z,24.23
2022-10-03T00:44:16.679Z,22.40
2022-10-03T00:46:56.313Z,23.73
2022-10-03T00:49:35.458Z,23.03
2022-10-03T00:52:25.718Z,24.43
2022-10-03T00:54:52.836Z,22.97
2022-10-03T00:57:20.325Z,23.47
2022-10-03T01:00:13.723Z,24.23
2022-10-03T01:02:40.828Z,24.37
2022-10-03T01:05:21.771Z,24.03
2022-10-03T01:08:07.729Z,25.50
2022-10-03T01:10:55.105Z,27.73
2022-10-03T01:13:22.338Z,25.87
2022-10-03T01:16:08.154Z,25.10
2022-10-03T01:18:41.169Z,25.60
2022-10-03T01:21:08.243Z,23.03
2022-10-03T01:23:35.434Z,23.07
2022-10-03T01:26:08.743Z,26.73
2022-10-03T01:29:06.243Z,24.30
2022-10-03T01:31:39.476Z,26.57
2022-10-03T01:34:25.649Z,28.00
2022-10-03T01:36:55.198Z,26.77
2022-10-03T01:39:34.403Z,28.07
2022-10-03T01:42:20.430Z,26.53
2022-10-03T01:44:56.203Z,26.27
2022-10-03T01:47:38.326Z,27.07
2022-10-03T01:50:17.202Z,25.97
2022-10-03T01:52:50.219Z,26.70
2022-10-03T01:55:36.536Z,27.43
2022-10-03T01:58:12.794Z,27.40
2022-10-03T02:00:58.688Z,26.50
2022-10-03T02:03:32.049Z,27.23
2022-10-03T02:06:20.299Z,28.03
2022-10-03T02:08:54.081Z,27.73
2022-10-03T02:11:29.909Z,28.03
2022-10-03T02:14:16.738Z,28.20
2022-10-03T02:16:45.287Z,28.47
2022-10-03T02:19:27.953Z,27.57
2022-10-03T02:21:56.399Z,26.60
2022-10-03T02:24:42.365Z,28.50
2022-10-03T02:27:21.711Z,27.20
2022-10-03T02:30:06.830Z,27.37
2022-10-03T02:32:52.782Z,26.60
2022-10-03T02:35:28.314Z,27.43
2022-10-03T02:38:10.094Z,27.43
2022-10-03T02:40:48.370Z,28.20
2022-10-03T02:43:16.414Z,29.13
2022-10-03T02:46:01.625Z,29.23
2022-10-03T02:48:47.949Z,27.93
2022-10-03T02:51:15.013Z,26.80
2022-10-03T02:54:00.870Z,26.67
2022-10-03T02:56:30.969Z,27.97
2022-10-03T02:59:16.645Z,25.73
2022-10-03T03:01:43.908Z,24.67
2022-10-03T03:04:29.886Z,26.83
2022-10-03T03:07:03.381Z,26.23
2022-10-03T03:09:42.354Z,25.73
2022-10-03T03:12:12.208Z,24.80
2022-10-03T03:14:57.995Z,24.23
2022-10-03T03:17:35.755Z,28.17
2022-10-03T03:20:02.916Z,26.37
2022-10-03T03:22:59.202Z,25.33
2022-10-03T03:25:39.925Z,26.07
2022-10-03T03:28:07.098Z,26.80
2022-10-03T03:30:57.343Z,26.50
2022-10-03T03:33:43.618Z,27.00
2022-10-03T03:36:17.149Z,27.30
2022-10-03T03:38:56.921Z,26.87
2022-10-03T03:41:32.414Z,27.30
2022-10-03T03:44:05.699Z,25.87
2022-10-03T03:46:32.767Z,27.00
2022-10-03T03:49:06.582Z,28.70
2022-10-03T03:51:42.788Z,28.80
2022-10-03T03:54:09.878Z,27.93
2022-10-03T03:56:55.341Z,30.27
2022-10-03T03:59:22.453Z,28.60
2022-10-03T04:01:54.655Z,27.80
2022-10-03T04:04:34.058Z,28.30
2022-10-03T04:07:03.961Z,28.13
2022-10-03T04:09:47.434Z,29.30
2022-10-03T04:12:33.338Z,28.93
2022-10-03T04:15:03.516Z,27.57
2022-10-03T04:18:11.754Z,26.30
2022-10-03T04:20:38.800Z,24.43
2022-10-03T04:23:05.864Z,24.37
2022-10-03T04:25:38.885Z,25.30
2022-10-03T04:28:07.250Z,25.03
2022-10-03T04:30:47.017Z,26.33
2022-10-03T04:33:38.975Z,26.73
2022-10-03T04:36:35.154Z,25.23
2022-10-03T04:39:37.874Z,25.77
2022-10-03T04:42:10.674Z,23.10
2022-10-03T04:44:38.113Z,24.43
2022-10-03T04:47:23.258Z,24.43
2022-10-03T04:49:53.630Z,24.00
2022-10-03T04:52:43.039Z,23.53
2022-10-03T04:55:25.422Z,25.53
2022-10-03T04:58:11.135Z,24.47
2022-10-03T05:00:41.409Z,24.47
2022-10-03T05:03:28.557Z,26.67
2022-10-03T05:05:59.321Z,24.70
2022-10-03T05:08:44.930Z,26.57
2022-10-03T05:11:27.614Z,24.43
2022-10-03T05:13:57.740Z,24.60
2022-10-03T05:16:42.209Z,24.97
2022-10-03T05:19:28.525Z,28.17
2022-10-03T05:21:56.540Z,26.03
2022-10-03T05:24:29.627Z,29.20
2022-10-03T05:27:11.146Z,35.87
2022-10-03T05:29:45.090Z,29.90
2022-10-03T05:32:21.457Z,32.00
2022-10-03T05:34:58.052Z,29.13
2022-10-03T05:37:27.965Z,30.00
2022-10-03T05:40:03.257Z,28.60
2022-10-03T05:42:30.306Z,26.33
2022-10-03T05:45:03.882Z,26.53
2022-10-03T05:48:06.298Z,26.90
2022-10-03T05:50:51.734Z,25.50
2022-10-03T05:53:24.876Z,26.27
2022-10-03T05:56:18.465Z,25.03
2022-10-03T05:58:46.567Z,24.63
2022-10-03T06:01:30.702Z,23.37
2022-10-03T06:04:16.053Z,23.00
2022-10-03T06:07:05.110Z,21.07
2022-10-03T06:09:38.072Z,20.30
2022-10-03T06:12:14.954Z,20.27
2022-10-03T06:15:05.730Z,20.30
2022-10-03T06:17:51.543Z,19.13
2022-10-03T06:20:23.256Z,17.70
2022-10-03T06:23:09.286Z,15.20
2022-10-03T06:25:42.666Z,14.13
2022-10-03T06:28:28.798Z,14.93
2022-10-03T06:31:07.852Z,11.20
2022-10-03T06:33:38.538Z,11.07
2022-10-03T06:36:30.623Z,9.40
2022-10-03T06:39:16.242Z,9.53
2022-10-03T06:42:04.172Z,9.83
2022-10-03T06:44:50.799Z,8.67
2022-10-03T06:47:29.014Z,7.17
2022-10-03T06:50:16.733Z,6.63
2022-10-03T06:53:02.505Z,6.73
2022-10-03T06:55:52.927Z,5.93
2022-10-03T06:58:37.685Z,5.53
2022-10-03T07:01:13.944Z,5.73
2022-10-03T07:03:53.256Z,5.03
2022-10-03T07:06:23.135Z,4.63
2022-10-03T07:08:53.315Z,5.13
2022-10-03T07:11:34.686Z,4.97
2022-10-03T07:14:09.097Z,5.00
2022-10-03T07:16:43.755Z,4.93
2022-10-03T07:19:40.490Z,4.65
2022-10-03T07:22:25.866Z,4.70
2022-10-03T07:24:52.966Z,5.15
2022-10-03T07:27:38.688Z,5.10
2022-10-03T07:30:08.645Z,5.55
2022-10-03T07:32:35.710Z,6.50
2022-10-03T07:35:11.972Z,5.50
2022-10-03T07:38:12.835Z,5.05
2022-10-03T07:40:58.748Z,5.15
2022-10-03T07:43:44.370Z,4.80
2022-10-03T07:46:14.539Z,3.90
2022-10-03T07:49:03.486Z,6.47
2022-10-03T07:51:30.925Z,156.35
2022-10-03T07:54:24.655Z,4.72
2022-10-03T07:56:51.811Z,5.40
2022-10-03T07:59:24.786Z,4.22
2022-10-03T08:01:54.606Z,4.28
2022-10-03T08:04:27.616Z,4.00
2022-10-03T08:07:10.883Z,3.60
2022-10-03T08:09:37.993Z,3.90
2022-10-03T08:12:34.621Z,3.67
2022-10-03T08:15:25.013Z,3.60
2022-10-03T08:18:16.225Z,3.42
2022-10-03T08:21:00.082Z,3.22
2022-10-03T08:23:42.456Z,3.60
2022-10-03T08:26:10.534Z,3.35
2022-10-03T08:28:38.469Z,3.50
2022-10-03T08:31:27.669Z,3.08
2022-10-03T08:33:57.798Z,2.70
2022-10-03T08:36:30.718Z,2.90
2022-10-03T08:39:00.874Z,2.55
2022-10-03T08:41:51.274Z,2.90
2022-10-03T08:44:36.710Z,2.90
2022-10-03T08:47:22.437Z,2.50
2022-10-03T08:49:51.772Z,2.75
2022-10-03T08:52:37.853Z,2.92
2022-10-03T08:55:23.054Z,2.78
2022-10-03T08:57:50.133Z,2.78
2022-10-03T09:00:20.457Z,2.80
2022-10-03T09:03:33.454Z,2.67
2022-10-03T09:06:09.075Z,3.05
2022-10-03T09:08:39.298Z,2.83
2022-10-03T09:11:41.760Z,2.85
2022-10-03T09:14:08.875Z,3.17
2022-10-03T09:17:06.288Z,2.85
2022-10-03T09:19:33.417Z,2.70
2022-10-03T09:22:12.615Z,3.35
2022-10-03T09:24:42.699Z,3.33
2022-10-03T09:27:13.586Z,3.00
2022-10-03T09:29:49.916Z,2.50
2022-10-03T09:32:23.558Z,3.10
2022-10-03T09:34:56.704Z,2.70
2022-10-03T09:37:51.685Z,2.95
2022-10-03T09:40:24.849Z,2.75
2022-10-03T09:43:06.767Z,2.30
2022-10-03T09:45:42.859Z,2.50
2022-10-03T09:48:19.121Z,2.20
2022-10-03T09:50:52.616Z,2.40
2022-10-03T09:53:32.336Z,2.92
2022-10-03T09:56:19.930Z,2.53
2022-10-03T09:59:05.732Z,2.33
2022-10-03T10:01:46.424Z,2.35
2022-10-03T10:04:19.708Z,2.10
2022-10-03T10:07:07.118Z,2.38
2022-10-03T10:09:49.299Z,2.90
2022-10-03T10:12:19.129Z,2.72
2022-10-03T10:14:46.227Z,2.50
2022-10-03T10:17:16.391Z,1.85
2022-10-03T10:19:55.624Z,1.92
2022-10-03T10:22:41.282Z,2.38
2022-10-03T10:25:17.603Z,2.05
2022-10-03T10:28:00.229Z,1.95
2022-10-03T10:30:46.401Z,1.98
2022-10-03T10:33:16.627Z,1.83
2022-10-03T10:36:06.865Z,2.05
2022-10-03T10:38:59.957Z,2.30
2022-10-03T10:41:33.113Z,2.10
2022-10-03T10:44:00.171Z,2.10
2022-10-03T10:46:30.348Z,2.10
2022-10-03T10:49:16.438Z,1.75
2022-10-03T10:52:02.651Z,1.95
2022-10-03T10:54:29.753Z,2.10
2022-10-03T10:57:15.985Z,1.85
2022-10-03T10:59:55.066Z,2.22
2022-10-03T11:02:37.333Z,3.13
2022-10-03T11:05:23.190Z,2.22
2022-10-03T11:07:53.924Z,2.17
2022-10-03T11:10:31.570Z,2.03
2022-10-03T11:13:17.465Z,1.88
2022-10-03T11:15:47.792Z,2.30
2022-10-03T11:18:41.021Z,1.98
2022-10-03T11:21:20.175Z,2.20
2022-10-03T11:24:05.841Z,2.00
2022-10-03T11:26:51.689Z,2.00
2022-10-03T11:29:21.886Z,1.95
2022-10-03T11:32:08.175Z,1.67
2022-10-03T11:34:42.536Z,1.50
2022-10-03T11:37:15.502Z,1.58
2022-10-03T11:39:42.575Z,1.73
2022-10-03T11:42:12.638Z,1.75
2022-10-03T11:44:46.574Z,1.70
2022-10-03T11:47:13.810Z,1.42
2022-10-03T11:49:43.919Z,1.60
2022-10-03T11:52:11.006Z,1.83
2022-10-03T11:54:39.869Z,1.73
2022-10-03T11:57:16.113Z,1.80
2022-10-03T11:59:53.010Z,1.80
2022-10-03T12:02:28.547Z,1.65
2022-10-03T12:04:55.714Z,1.92
2022-10-03T12:07:51.583Z,1.60
2022-10-03T12:10:35.426Z,1.60
2022-10-03T12:13:06.066Z,1.52
2022-10-03T12:15:34.228Z,1.77
2022-10-03T12:18:21.162Z,1.52
2022-10-03T12:20:54.466Z,1.67
2022-10-03T12:23:27.609Z,1.52
2022-10-03T12:25:55.557Z,1.90
2022-10-03T12:28:28.196Z,1.63
2022-10-03T12:30:57.782Z,1.70
2022-10-03T12:33:28.365Z,1.50
2022-10-03T12:36:04.139Z,1.55
2022-10-03T12:38:33.709Z,1.80
2022-10-03T12:41:19.673Z,1.60
2022-10-03T12:43:49.903Z,1.60
2022-10-03T12:46:21.267Z,1.70
2022-10-03T12:48:56.651Z,1.90
2022-10-03T12:51:35.965Z,1.77
2022-10-03T12:54:25.877Z,1.33
2022-10-03T12:56:53.652Z,1.50
2022-10-03T12:59:24.103Z,1.60
2022-10-03T13:01:51.198Z,2.00
2022-10-03T13:04:18.255Z,1.77
2022-10-03T13:07:03.744Z,1.67
2022-10-03T13:09:36.383Z,1.60
2022-10-03T13:12:13.457Z,1.70
2022-10-03T13:14:41.375Z,1.40
2022-10-03T13:17:17.877Z,2.00
2022-10-03T13:20:00.598Z,1.80
2022-10-03T13:22:51.026Z,1.70
2022-10-03T13:25:41.439Z,1.70
2022-10-03T13:28:11.389Z,1.87
2022-10-03T13:30:56.498Z,2.13
2022-10-03T13:33:28.150Z,2.57
2022-10-03T13:36:05.483Z,1.70
2022-10-03T13:38:33.199Z,2.20
2022-10-03T13:41:00.323Z,1.67
2022-10-03T13:43:35.762Z,2.45
2022-10-03T13:46:14.496Z,1.55
2022-10-03T13:48:44.122Z,2.63
2022-10-03T13:51:17.398Z,2.22
2022-10-03T13:53:53.519Z,2.33
2022-10-03T13:56:35.449Z,1.92
2022-10-03T13:59:08.410Z,1.80
2022-10-03T14:01:59.682Z,1.60
2022-10-03T14:04:50.801Z,1.83
2022-10-03T14:07:36.145Z,1.85
2022-10-03T14:10:03.439Z,1.80
2022-10-03T14:12:55.461Z,1.65
2022-10-03T14:15:23.094Z,1.55
2022-10-03T14:17:50.154Z,1.67
2022-10-03T14:20:17.250Z,1.55
2022-10-03T14:22:47.345Z,2.20
2022-10-03T14:25:23.778Z,2.60
2022-10-03T14:28:07.656Z,1.67
2022-10-03T14:30:34.767Z,1.70
2022-10-03T14:33:10.709Z,3.70
2022-10-03T14:35:38.908Z,3.33
2022-10-03T14:38:24.555Z,4.43
2022-10-03T14:40:58.846Z,2.85
2022-10-03T14:43:38.206Z,3.20
2022-10-03T14:46:06.811Z,7.32
2022-10-03T14:48:38.965Z,5.45
2022-10-03T14:51:26.986Z,4.05
2022-10-03T14:53:57.039Z,3.38
2022-10-03T14:56:25.889Z,3.97
2022-10-03T14:58:54.679Z,2.83
2022-10-03T15:01:24.187Z,2.13
2022-10-03T15:03:54.121Z,2.25
2022-10-03T15:06:33.162Z,2.00
2022-10-03T15:09:02.489Z,2.28
2022-10-03T15:11:32.299Z,2.35
2022-10-03T15:14:04.948Z,2.05
2022-10-03T15:16:34.696Z,2.22
2022-10-03T15:19:16.842Z,2.00
2022-10-03T15:21:45.906Z,2.60
2022-10-03T15:24:24.929Z,2.90
2022-10-03T15:26:56.269Z,2.90
2022-10-03T15:29:24.169Z,2.10
2022-10-03T15:31:51.723Z,2.90
2022-10-03T15:34:26.584Z,3.10
2022-10-03T15:36:56.222Z,3.33
2022-10-03T15:39:29.309Z,2.67
2022-10-03T15:42:04.534Z,3.03
2022-10-03T15:44:38.978Z,3.43
2022-10-03T15:47:14.459Z,2.90
2022-10-03T15:49:50.809Z,2.97
2022-10-03T15:52:33.039Z,3.10
2022-10-03T15:55:16.885Z,2.83
2022-10-03T15:57:46.858Z,2.57
2022-10-03T16:00:26.882Z,2.60
2022-10-03T16:02:58.590Z,2.30
2022-10-03T16:05:27.507Z,2.30
2022-10-03T16:08:01.695Z,2.53
2022-10-03T16:10:30.963Z,2.60
2022-10-03T16:13:16.754Z,2.87
2022-10-03T16:16:09.044Z,2.60
2022-10-03T16:18:45.305Z,3.00
2022-10-03T16:21:14.229Z,2.80
2022-10-03T16:23:45.274Z,2.77
2022-10-03T16:26:22.141Z,2.50
2022-10-03T16:28:53.342Z,3.20
2022-10-03T16:31:20.464Z,3.17
2022-10-03T16:34:00.300Z,3.30
2022-10-03T16:36:27.788Z,3.10
2022-10-03T16:38:55.130Z,2.93
2022-10-03T16:41:26.374Z,3.50
2022-10-03T16:43:59.806Z,2.87
2022-10-03T16:46:32.847Z,3.53
2022-10-03T16:49:20.622Z,3.90
2022-10-03T16:51:55.859Z,3.47
2022-10-03T16:54:23.638Z,3.43
2022-10-03T16:57:00.234Z,3.30
2022-10-03T16:59:28.751Z,3.83
2022-10-03T17:02:12.472Z,3.73
2022-10-03T17:04:41.051Z,3.50
2022-10-03T17:07:16.608Z,4.63
2022-10-03T17:09:43.872Z,4.90
2022-10-03T17:12:34.168Z,4.67
2022-10-03T17:15:08.534Z,4.60
2022-10-03T17:17:39.893Z,4.43
2022-10-03T17:20:17.341Z,4.37
2022-10-03T17:22:47.598Z,4.10
2022-10-03T17:25:18.285Z,4.60
2022-10-03T17:27:49.052Z,4.70
2022-10-03T17:30:39.008Z,5.13
2022-10-03T17:33:10.281Z,4.30
2022-10-03T17:35:41.074Z,4.07
2022-10-03T17:38:44.609Z,4.20
2022-10-03T17:41:13.510Z,5.03
2022-10-03T17:43:44.921Z,5.30
2022-10-03T17:46:27.531Z,5.30
2022-10-03T17:49:18.019Z,5.60
2022-10-03T17:51:48.203Z,5.50
2022-10-03T17:54:25.379Z,5.30
2022-10-03T17:56:59.566Z,5.13
2022-10-03T17:59:29.183Z,5.37
2022-10-03T18:02:17.130Z,5.33
2022-10-03T18:04:44.994Z,5.57
2022-10-03T18:07:23.538Z,6.17
2022-10-03T18:09:51.814Z,5.47
2022-10-03T18:12:25.521Z,5.87
2022-10-03T18:14:55.938Z,6.57
2022-10-03T18:17:55.448Z,7.43
2022-10-03T18:20:41.298Z,7.00
2022-10-03T18:23:11.916Z,6.90
2022-10-03T18:26:19.990Z,7.10
2022-10-03T18:28:55.837Z,7.17
2022-10-03T18:31:24.082Z,10.27
2022-10-03T18:34:00.360Z,10.80
2022-10-03T18:36:32.242Z,8.83
2022-10-03T18:39:00.618Z,6.97
2022-10-03T18:41:27.960Z,7.43
2022-10-03T18:43:59.921Z,7.37
2022-10-03T18:46:30.447Z,7.90
2022-10-03T18:49:30.168Z,7.33
2022-10-03T18:51:50.629Z,7.63
2022-10-03T18:54:17.950Z,7.23
2022-10-03T18:56:46.678Z,7.30
2022-10-03T18:59:16.671Z,6.50
2022-10-03T19:01:44.574Z,9.53
2022-10-03T19:04:14.862Z,8.77
2022-10-03T19:06:42.737Z,9.67
2022-10-03T19:09:22.791Z,9.23
2022-10-03T19:11:55.666Z,9.43
2022-10-03T19:14:28.718Z,8.17
2022-10-03T19:17:14.489Z,7.30
2022-10-03T19:19:56.655Z,7.40
2022-10-03T19:22:29.552Z,7.23
2022-10-03T19:24:59.385Z,7.67
2022-10-03T19:27:51.328Z,8.40
2022-10-03T19:30:20.207Z,9.40
2022-10-03T19:32:54.640Z,8.67
2022-10-03T19:35:22.645Z,8.90
2022-10-03T19:37:52.031Z,7.90
2022-10-03T19:40:24.999Z,9.40
2022-10-03T19:42:56.601Z,10.00
2022-10-03T19:45:23.931Z,8.53
2022-10-03T19:47:52.926Z,9.03
2022-10-03T19:50:30.405Z,8.27
2022-10-03T19:52:57.626Z,8.00
2022-10-03T19:55:29.910Z,8.47
2022-10-03T19:58:15.159Z,7.70
2022-10-03T20:00:50.790Z,8.40
2022-10-03T20:03:24.301Z,8.90
2022-10-03T20:06:02.162Z,8.17
2022-10-03T20:08:49.707Z,9.00
2022-10-03T20:11:16.811Z,9.27
2022-10-03T20:13:46.181Z,8.50
2022-10-03T20:16:15.113Z,8.80
2022-10-03T20:18:42.414Z,9.03
2022-10-03T20:21:10.714Z,9.40
2022-10-03T20:23:41.047Z,9.07
2022-10-03T20:26:26.758Z,9.13
2022-10-03T20:29:09.025Z,9.40
2022-10-03T20:31:37.388Z,9.30
2022-10-03T20:34:08.128Z,10.30
2022-10-03T20:36:39.284Z,9.90
2022-10-03T20:39:06.401Z,9.73
2022-10-03T20:41:51.634Z,9.83
2022-10-03T20:44:29.545Z,9.67
2022-10-03T20:47:07.451Z,9.83
2022-10-03T20:49:41.164Z,9.90
2022-10-03T20:52:09.459Z,9.47
2022-10-03T20:54:56.801Z,10.87
2022-10-03T20:57:29.981Z,9.60
2022-10-03T21:00:11.531Z,10.13
2022-10-03T21:02:38.633Z,10.53
2022-10-03T21:05:07.617Z,9.93
2022-10-03T21:07:41.026Z,10.03
2022-10-03T21:10:10.948Z,10.47
2022-10-03T21:12:44.735Z,10.87
2022-10-03T21:15:14.017Z,10.60
2022-10-03T21:17:43.143Z,10.87
2022-10-03T21:20:16.081Z,11.23
2022-10-03T21:22:44.045Z,11.57
2022-10-03T21:25:18.846Z,11.13
2022-10-03T21:27:51.201Z,11.30
2022-10-03T21:30:19.562Z,11.80
2022-10-03T21:33:10.530Z,11.20
2022-10-03T21:35:40.130Z,11.90
2022-10-03T21:38:26.874Z,11.73
2022-10-03T21:40:53.949Z,11.53
2022-10-03T21:43:39.814Z,11.53
2022-10-03T21:46:09.993Z,11.63
2022-10-03T21:48:48.026Z,12.03
2022-10-03T21:51:25.965Z,11.60
2022-10-03T21:54:02.349Z,11.97
2022-10-03T21:56:41.341Z,12.63
2022-10-03T21:59:22.810Z,11.50
2022-10-03T22:01:49.905Z,12.27
2022-10-03T22:04:27.713Z,12.13
2022-10-03T22:07:00.941Z,12.07
2022-10-03T22:09:28.369Z,12.20
2022-10-03T22:12:00.779Z,11.97
2022-10-03T22:14:36.901Z,11.40
2022-10-03T22:17:12.059Z,11.40
2022-10-03T22:19:41.796Z,11.90
2022-10-03T22:22:20.670Z,11.63
2022-10-03T22:25:06.546Z,11.57
2022-10-03T22:27:59.683Z,11.57
2022-10-03T22:30:26.964Z,11.83
2022-10-03T22:33:04.177Z,11.03
2022-10-03T22:35:45.851Z,11.43
2022-10-03T22:38:13.099Z,11.03
2022-10-03T22:40:40.818Z,11.60
2022-10-03T22:43:08.601Z,12.13
2022-10-03T22:45:38.730Z,12.63
2022-10-03T22:48:08.007Z,13.13
2022-10-03T22:50:40.111Z,13.33
2022-10-03T22:53:08.310Z,13.70
2022-10-03T22:55:35.417Z,15.63
2022-10-03T22:58:03.288Z,12.83
2022-10-03T23:00:33.287Z,13.23
2022-10-03T23:03:09.308Z,12.63
2022-10-03T23:05:48.444Z,12.50
2022-10-03T23:08:34.045Z,12.27
2022-10-03T23:11:10.298Z,12.07
2022-10-03T23:13:39.435Z,12.97
2022-10-03T23:16:09.376Z,12.77
2022-10-03T23:18:46.010Z,12.77
2022-10-03T23:21:13.287Z,12.87
2022-10-03T23:23:46.645Z,12.80
2022-10-03T23:26:25.993Z,12.73
2022-10-03T23:28:53.066Z,12.80
2022-10-03T23:31:39.119Z,13.37
2022-10-03T23:34:10.005Z,12.33
2022-10-03T23:36:57.902Z,12.30
2022-10-03T23:39:35.554Z,12.50
2022-10-03T23:42:09.631Z,12.90
2022-10-03T23:44:43.629Z,13.73
2022-10-03T23:47:15.261Z,14.07
2022-10-03T23:49:43.861Z,13.17
2022-10-03T23:52:16.516Z,13.07
2022-10-03T23:54:44.245Z,13.63
2022-10-03T23:57:14.329Z,13.80
2022-10-03T23:59:41.417Z,14.20
